Time;durP1;ratioP1;P1;durP2;ratioP2;P2;SDS_P1;SDS_P2;PMS_P1;PMS_P2;Temp;Humidity;BMP_temperature;BMP_pressure;BME280_temperature;BME280_humidity;BME280_pressure;Samples;Min_cycle;Max_cycle;Signal;HPM_P1;HPM_P2
2022/02/23 00:00:07;;;;;;;1.70;1.17;;;22.50;54.50;;;;;;5069803;28;20420;-81
2022/02/23 00:06:14;;;;;;;1.70;1.23;;;22.50;54.50;;;;;;5095467;28;20434;-82
2022/02/23 00:09:26;;;;;;;;;;;;;;;;;;;;;
2022/02/23 00:12:29;;;;;;;1.70;1.27;;;22.40;54.40;;;;;;5075051;28;20439;-81
2022/02/23 00:18:47;;;;;;;2.60;1.30;;;22.40;54.40;;;;;;5021100;28;20459;-81
2022/02/23 00:21:18;;;;;;;2.07;1.30;;;22.40;54.40;;;;;;5003260;28;20434;-81
2022/02/23 00:23:49;;;;;;;2.13;1.20;;;22.40;54.40;;;;;;4994733;28;20433;-82
2022/02/23 00:26:34;;;;;;;;;;;;;;;;;;;;;
2022/02/23 00:29:06;;;;;;;1.57;1.27;;;22.40;54.40;;;;;;4982942;28;20436;-81
2022/02/23 00:31:36;;;;;;;1.30;0.90;;;22.40;54.40;;;;;;5014041;28;20443;-81
2022/02/23 00:37:34;;;;;;;3.07;1.30;;;22.40;54.40;;;;;;5026523;28;20502;-81
2022/02/23 00:43:29;;;;;;;1.40;0.87;;;22.40;54.40;;;;;;4999564;28;20574;-81
2022/02/23 00:45:58;;;;;;;2.20;1.00;;;22.30;54.40;;;;;;5000242;28;20407;-81
2022/02/23 00:48:35;;;;;;;1.30;0.90;;;22.30;54.40;;;;;;5022778;28;20423;-80
2022/02/23 00:51:26;;;;;;;1.30;1.20;;;22.30;54.40;;;;;;5038016;28;20478;-81
2022/02/23 00:54:34;;;;;;;2.33;1.53;;;22.30;54.40;;;;;;5030815;28;20431;-81
2022/02/23 00:57:36;;;;;;;2.93;1.20;;;22.30;54.40;;;;;;5057274;28;20430;-81
2022/02/23 01:03:28;;;;;;;1.83;1.20;;;22.30;54.40;;;;;;5015890;28;20509;-81
2022/02/23 01:09:33;;;;;;;2.13;1.03;;;22.30;54.50;;;;;;4960615;29;20406;-81
2022/02/23 01:12:12;;;;;;;3.20;1.50;;;22.20;54.40;;;;;;4962984;29;20417;-81
2022/02/23 01:18:07;;;;;;;2.50;1.30;;;22.20;54.40;;;;;;5003897;28;20443;-81
2022/02/23 01:20:50;;;;;;;1.30;1.17;;;22.20;54.40;;;;;;5016910;28;20453;-82
2022/02/23 01:23:25;;;;;;;2.20;1.03;;;22.20;54.50;;;;;;5022461;28;20430;-81
2022/02/23 01:26:07;;;;;;;2.17;1.27;;;22.20;54.50;;;;;;5038331;28;20430;-82
2022/02/23 01:29:15;;;;;;;1.40;1.10;;;22.20;54.40;;;;;;5008338;28;20407;-82
2022/02/23 01:31:44;;;;;;;1.73;1.13;;;22.20;54.40;;;;;;5010817;28;20424;-82
2022/02/23 01:34:21;;;;;;;1.80;1.30;;;22.20;54.50;;;;;;5015378;28;20508;-82
2022/02/23 01:37:07;;;;;;;1.97;1.30;;;22.20;54.50;;;;;;5018461;28;20483;-81
2022/02/23 01:39:42;;;;;;;1.90;1.30;;;22.20;54.50;;;;;;5003356;28;20495;-81
2022/02/23 01:42:11;;;;;;;2.10;1.20;;;22.20;54.50;;;;;;4981261;28;20469;-82
2022/02/23 01:44:56;;;;;;;1.73;1.30;;;22.20;54.50;;;;;;4982255;28;20426;-82
2022/02/23 01:47:29;;;;;;;2.23;1.30;;;22.20;54.50;;;;;;4972149;28;20460;-82
2022/02/23 01:49:57;;;;;;;1.80;1.20;;;22.20;54.40;;;;;;5002218;28;20405;-82
2022/02/23 01:52:26;;;;;;;1.47;1.10;;;22.20;54.40;;;;;;5014800;28;20431;-82
2022/02/23 01:55:02;;;;;;;2.53;1.33;;;22.20;54.40;;;;;;5014878;28;20408;-82
2022/02/23 01:58:23;;;;;;;1.40;1.03;;;22.20;54.40;;;;;;5037816;28;20432;-82
2022/02/23 02:00:50;;;;;;;1.37;1.00;;;22.20;54.50;;;;;;5009684;28;20452;-81
2022/02/23 02:03:19;;;;;;;1.33;1.00;;;22.10;54.40;;;;;;5001918;28;20416;-82
2022/02/23 02:05:47;;;;;;;1.20;1.00;;;22.10;54.40;;;;;;5024716;28;20419;-82
2022/02/23 02:08:19;;;;;;;2.10;1.20;;;22.10;54.40;;;;;;4995120;28;20431;-82
2022/02/23 02:11:21;;;;;;;1.37;1.10;;;22.10;54.40;;;;;;5036816;28;20427;-82
2022/02/23 02:13:48;;;;;;;1.43;1.10;;;22.10;54.40;;;;;;5045263;28;20441;-82
2022/02/23 02:16:21;;;;;;;1.90;1.37;;;22.10;54.40;;;;;;5040609;28;20455;-82
2022/02/23 02:18:52;;;;;;;2.50;1.37;;;22.10;54.40;;;;;;5032368;28;20439;-82
2022/02/23 02:21:27;;;;;;;1.10;0.80;;;22.10;54.40;;;;;;5018369;28;20416;-82
2022/02/23 02:24:29;;;;;;;1.63;1.00;;;22.10;54.40;;;;;;5033974;28;20402;-82
2022/02/23 02:30:30;;;;;;;1.47;0.97;;;22.10;54.50;;;;;;5054169;28;20407;-82
2022/02/23 02:33:04;;;;;;;2.03;1.20;;;22.10;54.50;;;;;;5037516;28;20443;-82
2022/02/23 02:35:57;;;;;;;1.83;1.13;;;22.10;54.50;;;;;;5049956;28;20528;-82
2022/02/23 02:38:28;;;;;;;2.10;1.07;;;22.10;54.50;;;;;;5092148;28;20432;-82
2022/02/23 02:41:21;;;;;;;1.70;1.13;;;22.10;54.60;;;;;;5118554;28;20412;-82
2022/02/23 02:44:12;;;;;;;1.73;0.97;;;22.10;54.50;;;;;;5113657;28;20455;-82
2022/02/23 02:47:12;;;;;;;1.80;1.17;;;22.10;54.50;;;;;;5103791;28;20481;-82
2022/02/23 02:49:55;;;;;;;1.20;0.90;;;22.10;54.50;;;;;;5110879;28;20423;-82
2022/02/23 02:52:24;;;;;;;1.30;1.00;;;22.00;54.50;;;;;;5092166;28;20502;-82
2022/02/23 02:55:02;;;;;;;2.20;1.17;;;22.10;54.60;;;;;;5114328;28;20411;-82
2022/02/23 02:57:58;;;;;;;1.73;1.20;;;22.10;54.60;;;;;;5100406;28;20430;-82
2022/02/23 03:00:29;;;;;;;1.33;1.10;;;22.10;54.50;;;;;;5089173;28;20425;-82
2022/02/23 03:02:56;;;;;;;1.10;0.90;;;22.00;54.50;;;;;;5071746;28;20435;-82
2022/02/23 03:08:56;;;;;;;1.43;1.07;;;22.10;54.50;;;;;;5036419;28;20434;-82
2022/02/23 03:11:25;;;;;;;1.50;1.00;;;22.00;54.50;;;;;;5056310;28;20414;-82
2022/02/23 03:13:54;;;;;;;1.50;0.90;;;22.00;54.60;;;;;;5068847;28;20432;-82
2022/02/23 03:16:22;;;;;;;1.30;1.00;;;22.00;54.50;;;;;;5067250;28;20461;-81
2022/02/23 03:19:16;;;;;;;1.73;1.20;;;22.00;54.40;;;;;;5031312;28;20406;-82
2022/02/23 03:21:48;;;;;;;1.60;1.03;;;22.00;54.40;;;;;;5035061;28;20440;-81
2022/02/23 03:24:17;;;;;;;1.50;1.10;;;22.00;54.40;;;;;;5009402;28;20586;-81
2022/02/23 03:26:56;;;;;;;1.80;1.10;;;22.00;54.40;;;;;;5040415;28;20414;-81
2022/02/23 03:32:46;;;;;;;1.10;0.87;;;22.00;54.40;;;;;;5016129;28;20442;-80
2022/02/23 03:35:58;;;;;;;1.60;1.13;;;22.00;54.40;;;;;;4996351;28;20540;-81
2022/02/23 03:38:37;;;;;;;1.70;1.03;;;22.00;54.40;;;;;;5003812;28;20439;-81
2022/02/23 03:41:24;;;;;;;1.27;0.87;;;22.00;54.50;;;;;;5042857;28;20438;-81
2022/02/23 03:44:39;;;;;;;1.73;0.90;;;22.00;54.50;;;;;;5027161;28;20448;-81
2022/02/23 03:47:19;;;;;;;2.27;0.97;;;22.00;54.50;;;;;;5033750;28;20490;-81
2022/02/23 03:50:00;;;;;;;2.10;1.30;;;22.00;54.50;;;;;;5019594;28;20423;-82
2022/02/23 03:52:35;;;;;;;1.30;1.00;;;22.00;54.50;;;;;;5035321;28;20400;-81
2022/02/23 03:55:05;;;;;;;1.60;0.93;;;22.00;54.50;;;;;;5034757;28;20500;-81
2022/02/23 03:57:37;;;;;;;1.37;1.00;;;21.90;54.40;;;;;;5034942;28;20411;-82
2022/02/23 04:00:21;;;;;;;1.53;1.00;;;22.00;54.50;;;;;;5016424;28;20448;-82
2022/02/23 04:02:53;;;;;;;1.30;1.00;;;21.90;54.40;;;;;;5035611;28;20525;-82
2022/02/23 04:06:20;;;;;;;1.17;0.80;;;21.90;54.40;;;;;;5032453;28;20411;-81
2022/02/23 04:08:51;;;;;;;1.47;0.97;;;22.00;54.40;;;;;;5060053;28;20420;-81
2022/02/23 04:11:17;;;;;;;1.03;0.83;;;21.90;54.40;;;;;;5093452;28;20452;-82
2022/02/23 04:13:48;;;;;;;2.17;1.20;;;21.90;54.40;;;;;;5099358;28;20430;-82
2022/02/23 04:16:22;;;;;;;1.73;1.03;;;21.90;54.40;;;;;;5115988;28;20436;-81
2022/02/23 04:22:27;;;;;;;1.20;0.80;;;21.90;54.40;;;;;;5055544;28;20397;-82
2022/02/23 04:25:29;;;;;;;1.40;1.00;;;21.90;54.40;;;;;;5028238;28;20419;-82
2022/02/23 04:28:05;;;;;;;1.63;1.07;;;21.90;54.40;;;;;;5055775;28;20491;-81
2022/02/23 04:30:52;;;;;;;1.07;0.83;;;21.90;54.40;;;;;;5054091;28;20445;-82
2022/02/23 04:33:39;;;;;;;1.97;1.10;;;21.90;54.50;;;;;;5093700;28;20401;-82
2022/02/23 04:36:34;;;;;;;1.17;1.07;;;21.90;54.40;;;;;;5078375;28;20483;-82
2022/02/23 04:42:28;;;;;;;1.17;0.90;;;21.90;54.40;;;;;;5054635;28;20425;-82
2022/02/23 04:45:01;;;;;;;1.03;0.90;;;21.90;54.50;;;;;;5057931;28;20421;-82
2022/02/23 04:47:39;;;;;;;1.63;1.13;;;21.90;54.50;;;;;;5058690;28;20461;-82
2022/02/23 04:50:07;;;;;;;1.60;1.10;;;21.90;54.50;;;;;;5042164;28;20425;-82
2022/02/23 04:52:42;;;;;;;1.33;0.80;;;21.90;54.40;;;;;;5073463;28;20474;-82
2022/02/23 04:55:26;;;;;;;1.30;1.10;;;21.90;54.40;;;;;;5057082;28;20441;-82
2022/02/23 04:57:56;;;;;;;1.37;1.00;;;21.90;54.40;;;;;;5062928;28;20428;-82
2022/02/23 05:00:29;;;;;;;1.10;0.77;;;21.90;54.40;;;;;;5035571;28;20419;-82
2022/02/23 05:03:00;;;;;;;1.80;1.03;;;21.90;54.40;;;;;;5022795;28;20518;-82
2022/02/23 05:09:07;;;;;;;1.30;0.90;;;21.90;54.40;;;;;;5108293;28;20762;-82
2022/02/23 05:11:55;;;;;;;1.37;0.90;;;21.90;54.40;;;;;;5106109;28;20423;-82
2022/02/23 05:14:30;;;;;;;1.10;0.90;;;21.90;54.40;;;;;;5114399;28;20434;-82
2022/02/23 05:17:21;;;;;;;1.93;0.83;;;21.80;54.30;;;;;;5098053;28;20489;-82
2022/02/23 05:20:29;;;;;;;1.07;0.80;;;21.90;54.40;;;;;;5094667;28;20416;-83
2022/02/23 05:22:56;;;;;;;1.73;0.93;;;21.90;54.40;;;;;;5090669;28;20424;-81
2022/02/23 05:25:35;;;;;;;1.40;1.13;;;21.80;54.40;;;;;;5097618;28;20427;-81
2022/02/23 05:28:05;;;;;;;1.40;1.00;;;21.80;54.40;;;;;;5034625;28;20424;-82
2022/02/23 05:30:55;;;;;;;1.40;1.00;;;21.80;54.30;;;;;;5101858;28;20489;-83
2022/02/23 05:33:41;;;;;;;1.60;0.70;;;21.80;54.30;;;;;;5118044;28;20434;-82
2022/02/23 05:36:14;;;;;;;2.90;1.10;;;21.80;54.40;;;;;;5101299;28;20455;-82
2022/02/23 05:38:40;;;;;;;2.47;1.00;;;21.80;54.90;;;;;;5100867;28;20453;-82
2022/02/23 05:41:12;;;;;;;1.73;0.93;;;21.80;54.30;;;;;;5117597;28;20415;-82
2022/02/23 05:43:41;;;;;;;1.37;0.80;;;21.80;54.30;;;;;;5100603;28;20496;-82
2022/02/23 05:46:07;;;;;;;2.30;0.80;;;21.80;54.30;;;;;;5118621;28;20423;-82
2022/02/23 05:48:33;;;;;;;2.07;0.90;;;21.80;54.30;;;;;;5100567;28;20435;-82
2022/02/23 05:51:34;;;;;;;1.50;0.87;;;21.80;54.30;;;;;;5101327;28;20430;-81
2022/02/23 05:54:02;;;;;;;2.23;0.90;;;21.90;54.40;;;;;;5119523;28;20411;-81
2022/02/23 05:56:40;;;;;;;1.70;0.90;;;21.80;54.30;;;;;;5102340;28;20481;-80
2022/02/23 05:59:09;;;;;;;2.07;0.97;;;21.80;54.30;;;;;;5098751;28;20446;-81
2022/02/23 06:01:39;;;;;;;1.00;0.70;;;21.80;54.30;;;;;;5117655;28;20452;-82
2022/02/23 06:07:38;;;;;;;1.10;0.90;;;21.80;54.30;;;;;;5115834;28;20386;-83
2022/02/23 06:10:26;;;;;;;1.10;0.80;;;21.80;54.40;;;;;;5113110;28;20406;-81
2022/02/23 06:13:01;;;;;;;1.53;0.93;;;21.80;54.40;;;;;;5118263;28;20396;-83
2022/02/23 06:15:27;;;;;;;1.70;1.20;;;21.80;54.40;;;;;;5099871;28;20443;-83
2022/02/23 06:17:56;;;;;;;1.50;1.10;;;21.80;54.40;;;;;;5098513;28;20423;-82
2022/02/23 06:20:22;;;;;;;1.80;1.00;;;21.80;54.40;;;;;;5099790;28;20468;-82
2022/02/23 06:26:11;;;;;;;2.10;0.93;;;21.90;54.40;;;;;;5106433;28;20418;-83
2022/02/23 06:28:38;;;;;;;1.83;0.87;;;21.80;54.40;;;;;;5082094;28;20427;-83
2022/02/23 06:31:16;;;;;;;1.20;0.90;;;21.80;54.40;;;;;;5116186;28;20470;-83
2022/02/23 06:33:49;;;;;;;2.87;1.10;;;21.80;54.40;;;;;;5116822;28;20411;-83
2022/02/23 06:36:20;;;;;;;1.47;0.90;;;21.90;55.00;;;;;;5117101;28;20439;-83
2022/02/23 06:38:57;;;;;;;2.60;0.97;;;21.90;54.40;;;;;;5116082;28;20384;-83
2022/02/23 06:41:26;;;;;;;0.90;0.70;;;21.90;54.40;;;;;;5099402;28;20427;-83
2022/02/23 06:43:57;;;;;;;1.33;0.90;;;21.90;54.40;;;;;;5098105;28;20404;-83
2022/02/23 06:46:24;;;;;;;5.17;1.00;;;21.90;54.40;;;;;;5097025;28;20482;-83
2022/02/23 06:48:50;;;;;;;1.73;0.97;;;21.90;54.40;;;;;;5096900;28;20424;-83
2022/02/23 06:51:20;;;;;;;1.87;0.90;;;21.90;54.40;;;;;;5081347;28;20439;-83
2022/02/23 06:53:50;;;;;;;1.30;0.80;;;21.90;54.40;;;;;;5083421;28;20415;-83
2022/02/23 06:56:17;;;;;;;1.50;1.10;;;21.90;54.40;;;;;;5097806;28;20451;-83
2022/02/23 06:58:53;;;;;;;1.10;1.00;;;21.90;54.40;;;;;;5094977;28;20424;-83
2022/02/23 07:01:20;;;;;;;1.33;0.97;;;21.90;54.40;;;;;;5089470;28;20420;-85
2022/02/23 07:03:48;;;;;;;1.90;0.87;;;21.90;54.40;;;;;;5095816;28;20451;-83
2022/02/23 07:06:17;;;;;;;1.03;0.80;;;21.90;54.40;;;;;;5095830;28;20411;-83
2022/02/23 07:08:49;;;;;;;1.73;0.83;;;21.90;54.40;;;;;;5113340;28;20506;-83
2022/02/23 07:11:25;;;;;;;1.00;0.80;;;21.90;54.40;;;;;;5096204;28;20434;-83
2022/02/23 07:13:54;;;;;;;1.53;0.97;;;21.90;54.40;;;;;;5097987;28;20434;-83
2022/02/23 07:16:23;;;;;;;1.53;0.90;;;21.90;54.40;;;;;;5063706;28;20461;-83
2022/02/23 07:18:54;;;;;;;1.20;0.90;;;21.90;54.40;;;;;;5076723;28;20415;-83
2022/02/23 07:21:21;;;;;;;2.13;0.80;;;21.90;54.40;;;;;;5081763;28;20416;-84
2022/02/23 07:23:47;;;;;;;1.00;0.73;;;22.00;54.50;;;;;;5114495;28;20427;-83
2022/02/23 07:26:33;;;;;;;1.10;0.70;;;21.90;54.40;;;;;;5114349;28;20442;-82
2022/02/23 07:29:04;;;;;;;1.30;0.90;;;22.00;54.40;;;;;;5110840;28;20424;-82
2022/02/23 07:31:30;;;;;;;1.90;0.87;;;21.90;54.40;;;;;;5076272;28;20428;-82
2022/02/23 07:33:56;;;;;;;1.50;0.90;;;22.00;54.50;;;;;;5112304;28;20499;-82
2022/02/23 07:36:22;;;;;;;2.13;1.23;;;22.00;54.50;;;;;;5104692;28;20460;-82
2022/02/23 07:38:51;;;;;;;1.50;0.80;;;22.00;54.40;;;;;;5109137;28;20407;-84
2022/02/23 07:41:25;;;;;;;1.53;0.87;;;22.00;54.40;;;;;;5096928;28;20408;-84
2022/02/23 07:43:54;;;;;;;1.37;0.80;;;22.00;54.40;;;;;;5096736;28;20402;-83
2022/02/23 07:46:52;;;;;;;1.10;1.00;;;22.00;55.00;;;;;;5113073;28;20452;-83
2022/02/23 07:49:18;;;;;;;1.47;0.93;;;22.00;54.40;;;;;;5094973;28;20479;-83
2022/02/23 07:51:48;;;;;;;1.30;0.80;;;22.00;54.40;;;;;;5074155;28;20447;-82
2022/02/23 07:54:14;;;;;;;1.10;0.90;;;22.00;54.40;;;;;;5078999;28;20426;-83
2022/02/23 07:56:51;;;;;;;1.20;0.73;;;22.00;54.40;;;;;;5095648;28;20455;-82
2022/02/23 07:59:24;;;;;;;1.20;0.87;;;22.00;54.40;;;;;;5106932;28;20439;-82
2022/02/23 08:01:54;;;;;;;1.63;1.10;;;22.00;54.40;;;;;;5113116;28;20415;-82
2022/02/23 08:04:22;;;;;;;1.43;1.30;;;22.00;54.40;;;;;;5096721;28;20423;-82
2022/02/23 08:06:49;;;;;;;1.90;0.90;;;22.00;54.40;;;;;;5113384;28;20418;-83
2022/02/23 08:09:23;;;;;;;2.13;1.27;;;22.00;54.40;;;;;;5096513;28;20964;-83
2022/02/23 08:11:48;;;;;;;1.10;0.80;;;22.00;54.40;;;;;;5096070;28;20435;-83
2022/02/23 08:14:16;;;;;;;1.00;0.70;;;22.00;54.40;;;;;;5114006;28;20407;-83
2022/02/23 08:19:38;;;;;;;1.07;0.87;;;22.00;54.40;;;;;;5104971;28;20378;-83
2022/02/23 08:22:14;;;;;;;1.80;0.93;;;22.00;54.40;;;;;;5079879;28;20450;-83
2022/02/23 08:24:50;;;;;;;1.20;0.80;;;22.00;54.40;;;;;;5092067;28;20407;-83
2022/02/23 08:27:22;;;;;;;2.23;1.00;;;22.00;54.40;;;;;;5109777;28;20506;-83
2022/02/23 08:29:59;;;;;;;1.07;0.83;;;22.00;54.40;;;;;;5083692;28;20426;-83
2022/02/23 08:32:26;;;;;;;1.70;1.00;;;22.00;54.40;;;;;;5087714;28;20500;-83
2022/02/23 08:34:53;;;;;;;1.83;0.90;;;22.00;54.40;;;;;;5094579;28;20415;-83
2022/02/23 08:37:23;;;;;;;2.80;0.80;;;22.00;54.40;;;;;;5113738;28;20422;-83
2022/02/23 08:39:51;;;;;;;1.37;1.00;;;22.00;54.40;;;;;;5113543;28;20396;-83
2022/02/23 08:42:17;;;;;;;1.40;0.93;;;22.00;54.40;;;;;;5081318;28;20413;-83
2022/02/23 08:44:43;;;;;;;1.00;0.73;;;22.00;54.40;;;;;;5094568;28;20438;-83
2022/02/23 08:47:10;;;;;;;4.20;1.17;;;22.00;54.40;;;;;;5095446;28;20443;-83
2022/02/23 08:49:36;;;;;;;1.17;0.73;;;22.00;54.40;;;;;;5108299;28;20408;-83
2022/02/23 08:52:03;;;;;;;1.53;0.80;;;22.00;54.40;;;;;;5094993;28;20424;-83
2022/02/23 08:54:33;;;;;;;1.00;0.80;;;22.00;54.40;;;;;;5090759;28;20436;-83
2022/02/23 08:57:02;;;;;;;1.37;1.00;;;22.00;54.40;;;;;;5060040;28;20460;-83
2022/02/23 08:59:31;;;;;;;1.20;0.90;;;22.00;54.40;;;;;;5078151;28;20447;-83
2022/02/23 09:01:58;;;;;;;1.50;1.00;;;22.00;54.40;;;;;;5096809;28;20400;-83
2022/02/23 09:04:25;;;;;;;1.40;0.80;;;22.00;54.40;;;;;;5099003;28;20437;-83
2022/02/23 09:06:55;;;;;;;1.13;0.90;;;22.00;54.40;;;;;;5081997;28;20431;-83
2022/02/23 09:09:23;;;;;;;1.60;0.90;;;22.00;54.40;;;;;;5081529;28;20420;-83
2022/02/23 09:11:53;;;;;;;1.73;1.00;;;22.00;54.40;;;;;;5064048;28;20421;-83
2022/02/23 09:14:21;;;;;;;1.40;0.77;;;22.00;54.40;;;;;;5079409;28;20446;-83
2022/02/23 09:16:47;;;;;;;1.83;1.30;;;22.00;54.40;;;;;;5071465;28;20505;-83
2022/02/23 09:19:14;;;;;;;1.00;0.80;;;22.00;54.40;;;;;;5097587;28;20411;-83
2022/02/23 09:21:40;;;;;;;1.20;0.90;;;22.00;54.40;;;;;;5062967;28;20427;-83
2022/02/23 09:24:08;;;;;;;1.70;0.90;;;22.10;54.50;;;;;;5097559;28;20412;-83
2022/02/23 09:26:37;;;;;;;1.20;0.80;;;22.10;54.50;;;;;;5117395;28;20439;-83
2022/02/23 09:29:07;;;;;;;1.07;0.90;;;22.00;54.40;;;;;;5082664;28;20431;-83
2022/02/23 09:31:35;;;;;;;0.80;0.70;;;22.10;54.50;;;;;;5080962;28;20423;-84
2022/02/23 09:34:01;;;;;;;1.10;0.80;;;22.10;54.50;;;;;;5099494;28;20445;-84
2022/02/23 09:36:30;;;;;;;1.20;0.80;;;22.10;54.50;;;;;;5117529;28;20517;-83
2022/02/23 09:38:55;;;;;;;1.47;0.90;;;22.10;54.50;;;;;;5099172;28;20420;-83
2022/02/23 09:41:22;;;;;;;1.37;0.83;;;22.10;55.00;;;;;;5097635;28;20180;-85
2022/02/23 09:43:54;;;;;;;1.23;0.77;;;22.10;54.50;;;;;;5116544;28;20181;-83
2022/02/23 09:46:27;;;;;;;0.90;0.67;;;22.10;55.00;;;;;;5083563;28;20431;-83
2022/02/23 09:48:58;;;;;;;1.77;1.00;;;22.10;54.50;;;;;;5084214;28;20804;-83
2022/02/23 09:51:25;;;;;;;0.97;0.80;;;22.10;54.50;;;;;;5100104;28;20396;-83
2022/02/23 09:53:57;;;;;;;1.83;0.80;;;22.10;54.50;;;;;;5117344;28;20412;-83
2022/02/23 09:56:25;;;;;;;2.60;1.13;;;22.10;54.60;;;;;;5099246;28;20457;-84
2022/02/23 09:58:54;;;;;;;1.57;0.90;;;22.10;54.60;;;;;;5117256;28;20411;-83
2022/02/23 10:01:23;;;;;;;1.40;1.10;;;22.10;54.60;;;;;;5100051;28;20412;-83
2022/02/23 10:03:52;;;;;;;1.53;0.80;;;22.10;54.60;;;;;;5083723;28;20416;-83
2022/02/23 10:06:29;;;;;;;1.13;0.83;;;22.10;54.60;;;;;;5118170;28;20442;-84
2022/02/23 10:09:05;;;;;;;0.93;0.70;;;22.10;54.60;;;;;;5099814;28;20407;-84
2022/02/23 10:11:32;;;;;;;1.40;1.00;;;22.10;54.60;;;;;;5100414;28;20403;-84
2022/02/23 10:14:04;;;;;;;1.53;0.90;;;22.10;54.60;;;;;;5082742;28;20392;-84
2022/02/23 10:16:35;;;;;;;2.07;1.10;;;22.10;54.60;;;;;;5118013;28;20469;-84
2022/02/23 10:19:17;;;;;;;1.43;0.90;;;22.20;54.60;;;;;;5100741;28;20411;-84
2022/02/23 10:21:56;;;;;;;1.27;0.70;;;22.20;54.60;;;;;;5118240;28;20380;-83
2022/02/23 10:24:45;;;;;;;1.83;1.03;;;22.20;54.60;;;;;;5099874;28;20400;-83
2022/02/23 10:27:14;;;;;;;2.23;1.07;;;22.20;54.60;;;;;;4998409;28;20505;-83
2022/02/23 10:29:56;;;;;;;1.50;0.90;;;22.20;54.70;;;;;;5014513;28;20404;-83
2022/02/23 10:32:25;;;;;;;1.10;0.87;;;22.20;54.80;;;;;;4999365;28;20432;-83
2022/02/23 10:34:58;;;;;;;2.40;0.90;;;22.30;55.30;;;;;;4999529;28;20417;-83
2022/02/23 10:37:31;;;;;;;1.47;0.97;;;22.30;54.70;;;;;;5000161;28;20964;-83
2022/02/23 10:40:02;;;;;;;0.80;0.60;;;22.30;54.70;;;;;;5017339;28;20376;-83
2022/02/23 10:42:35;;;;;;;1.10;0.70;;;22.30;54.80;;;;;;5016447;28;20424;-82
2022/02/23 10:45:06;;;;;;;1.37;0.70;;;22.30;54.80;;;;;;5015965;28;20431;-82
2022/02/23 10:47:42;;;;;;;1.10;0.80;;;22.30;54.80;;;;;;5016684;28;20478;-82
2022/02/23 10:50:39;;;;;;;2.80;0.97;;;22.30;54.80;;;;;;5015701;28;20388;-82
2022/02/23 10:53:07;;;;;;;1.20;0.83;;;22.30;54.70;;;;;;5006431;28;20436;-83
2022/02/23 10:55:41;;;;;;;1.13;0.80;;;22.30;54.80;;;;;;5000071;28;20475;-83
2022/02/23 10:58:11;;;;;;;2.50;1.00;;;22.30;54.70;;;;;;4998246;28;20512;-83
2022/02/23 11:00:43;;;;;;;0.93;0.70;;;22.40;55.30;;;;;;4997903;28;20424;-83
2022/02/23 11:03:12;;;;;;;1.33;0.70;;;22.40;54.80;;;;;;5024038;28;20403;-83
2022/02/23 11:05:40;;;;;;;1.70;0.70;;;22.30;54.60;;;;;;5097723;28;20420;-83
2022/02/23 11:08:12;;;;;;;1.20;0.80;;;22.40;54.70;;;;;;5098244;28;20416;-83
2022/02/23 11:10:40;;;;;;;1.00;0.73;;;22.40;54.70;;;;;;5081526;28;20446;-83
2022/02/23 11:13:08;;;;;;;1.43;0.60;;;22.40;54.70;;;;;;5097380;28;20422;-83
2022/02/23 11:15:35;;;;;;;1.33;0.90;;;22.40;54.60;;;;;;5095443;28;20463;-83
2022/02/23 11:18:04;;;;;;;2.43;1.00;;;22.40;54.60;;;;;;5115872;28;20403;-83
2022/02/23 11:20:34;;;;;;;1.13;1.00;;;22.40;54.60;;;;;;5097090;28;20414;-83
2022/02/23 11:26:24;;;;;;;1.33;0.70;;;22.40;54.60;;;;;;5115397;28;20363;-83
2022/02/23 11:29:34;;;;;;;1.20;0.90;;;22.40;54.60;;;;;;5115103;28;20404;-83
2022/02/23 11:32:04;;;;;;;1.00;0.80;;;22.40;54.60;;;;;;5033255;28;20433;-89
2022/02/23 11:34:30;;;;;;;1.60;0.83;;;22.40;54.70;;;;;;5110283;28;20376;-83
2022/02/23 11:36:59;;;;;;;1.40;0.87;;;22.40;54.60;;;;;;5116629;28;20495;-83
2022/02/23 11:39:31;;;;;;;1.90;0.70;;;22.40;54.60;;;;;;5098408;28;20416;-82
2022/02/23 11:42:00;;;;;;;1.80;0.80;;;22.40;54.60;;;;;;5115201;28;20400;-82
2022/02/23 11:44:30;;;;;;;0.90;0.70;;;22.40;54.60;;;;;;5083456;28;20807;-82
2022/02/23 11:50:10;;;;;;;1.60;0.80;;;22.40;54.60;;;;;;5116364;28;20451;-82
2022/02/23 11:52:50;;;;;;;2.50;1.00;;;22.40;54.60;;;;;;5117115;28;20403;-82
2022/02/23 12:01:48;;;;;;;0.97;0.60;;;22.40;54.60;;;;;;5115675;28;20393;-82
2022/02/23 12:04:21;;;;;;;2.80;1.00;;;22.40;54.60;;;;;;5097437;28;20437;-82
2022/02/23 12:07:12;;;;;;;1.70;0.80;;;22.40;54.60;;;;;;5115476;28;20392;-83
2022/02/23 12:10:00;;;;;;;1.93;1.20;;;22.40;54.60;;;;;;5115795;28;20407;-82
2022/02/23 12:13:02;;;;;;;1.20;0.70;;;22.40;54.60;;;;;;5097445;28;20415;-82
2022/02/23 12:15:40;;;;;;;0.93;0.70;;;22.40;54.60;;;;;;4982215;28;20494;-82
2022/02/23 12:18:18;;;;;;;1.67;1.10;;;22.40;54.60;;;;;;4997790;28;20414;-85
2022/02/23 12:21:04;;;;;;;1.10;0.80;;;22.40;54.60;;;;;;4996822;28;20399;-83
2022/02/23 12:23:36;;;;;;;1.73;0.93;;;22.40;54.60;;;;;;4955069;29;20418;-83
2022/02/23 12:26:04;;;;;;;1.03;0.80;;;22.40;54.60;;;;;;4955028;29;20423;-83
2022/02/23 12:28:37;;;;;;;1.27;0.80;;;22.40;54.60;;;;;;4939093;29;20447;-83
2022/02/23 12:31:09;;;;;;;1.23;0.90;;;22.40;54.60;;;;;;4938980;29;20430;-89
2022/02/23 12:33:43;;;;;;;1.83;1.03;;;22.40;54.60;;;;;;4952806;29;20399;-84
2022/02/23 12:36:33;;;;;;;2.17;1.20;;;22.40;54.60;;;;;;4940160;29;20472;-84
2022/02/23 12:39:07;;;;;;;1.20;0.90;;;22.40;54.50;;;;;;4951847;29;20434;-84
2022/02/23 12:41:35;;;;;;;3.23;1.50;;;22.40;54.50;;;;;;4942702;29;20462;-84
2022/02/23 12:44:04;;;;;;;1.13;0.77;;;22.40;54.50;;;;;;4960395;29;20423;-83
2022/02/23 12:46:43;;;;;;;1.20;0.80;;;22.40;54.50;;;;;;4942882;29;20407;-83
2022/02/23 12:49:11;;;;;;;1.30;1.20;;;22.40;54.50;;;;;;4944039;29;20442;-83
2022/02/23 12:51:48;;;;;;;1.33;0.90;;;22.40;54.50;;;;;;5009027;28;20423;-83
2022/02/23 12:54:38;;;;;;;1.57;0.90;;;22.40;54.50;;;;;;5021349;28;20572;-83
2022/02/23 12:57:09;;;;;;;1.20;0.90;;;22.40;54.50;;;;;;5018717;28;20459;-83
2022/02/23 13:02:34;;;;;;;2.00;0.93;;;22.40;54.50;;;;;;5118756;28;20368;-83
2022/02/23 13:05:00;;;;;;;1.33;0.77;;;22.40;54.50;;;;;;5118053;28;20399;-83
2022/02/23 13:07:28;;;;;;;1.00;0.70;;;22.40;54.50;;;;;;5117634;28;20422;-83
2022/02/23 13:10:02;;;;;;;1.17;0.83;;;22.40;54.50;;;;;;5099959;28;20423;-83
2022/02/23 13:12:29;;;;;;;1.57;0.77;;;22.40;54.50;;;;;;5117986;28;20395;-83
2022/02/23 13:14:59;;;;;;;1.97;0.97;;;22.40;54.40;;;;;;5117691;28;20427;-83
2022/02/23 13:17:27;;;;;;;2.17;1.00;;;22.40;54.40;;;;;;5099830;28;20439;-83
2022/02/23 13:19:59;;;;;;;1.23;0.90;;;22.40;54.40;;;;;;5099488;28;20415;-83
2022/02/23 13:22:37;;;;;;;2.07;0.70;;;22.40;54.40;;;;;;5099090;28;20893;-83
2022/02/23 13:25:14;;;;;;;1.50;0.90;;;22.40;54.40;;;;;;5086951;28;20404;-83
2022/02/23 13:27:41;;;;;;;1.47;0.90;;;22.40;54.40;;;;;;5100565;28;20482;-83
2022/02/23 13:30:09;;;;;;;1.30;0.80;;;22.40;54.40;;;;;;5117829;28;20399;-83
2022/02/23 13:32:37;;;;;;;1.37;0.80;;;22.40;54.40;;;;;;5100893;28;20431;-83
2022/02/23 13:35:13;;;;;;;1.97;0.70;;;22.40;54.40;;;;;;5101795;28;20483;-83
2022/02/23 13:37:49;;;;;;;3.93;0.90;;;22.40;54.40;;;;;;5082697;28;20445;-83
2022/02/23 13:40:21;;;;;;;1.47;0.70;;;22.40;54.40;;;;;;5101214;28;20423;-83
2022/02/23 13:43:02;;;;;;;1.10;0.70;;;22.40;54.40;;;;;;5119073;28;20389;-83
2022/02/23 13:45:36;;;;;;;1.43;0.70;;;22.40;54.40;;;;;;5086289;28;20420;-83
2022/02/23 13:48:13;;;;;;;1.03;0.80;;;22.40;54.40;;;;;;5107824;28;20520;-83
2022/02/23 13:50:43;;;;;;;2.07;0.80;;;22.40;54.40;;;;;;5067699;28;20424;-83
2022/02/23 13:53:28;;;;;;;;;;;;;;;;;;;;;
2022/02/23 13:55:57;;;;;;;1.83;1.00;;;22.40;54.40;;;;;;5109682;28;20475;-83
2022/02/23 13:58:34;;;;;;;2.43;0.97;;;22.40;54.40;;;;;;5116868;28;20404;-82
2022/02/23 14:01:07;;;;;;;1.30;1.00;;;22.40;54.50;;;;;;5116975;28;20931;-81
2022/02/23 14:03:39;;;;;;;2.43;0.90;;;22.40;54.40;;;;;;5118402;28;20406;-81
2022/02/23 14:06:23;;;;;;;1.20;0.97;;;22.40;54.50;;;;;;5108042;28;20411;-81
2022/02/23 14:09:00;;;;;;;1.77;1.00;;;22.40;54.50;;;;;;5100490;28;20427;-81
2022/02/23 14:11:52;;;;;;;1.00;0.70;;;22.40;54.50;;;;;;5116492;28;20424;-81
2022/02/23 14:14:22;;;;;;;1.07;0.80;;;22.40;54.50;;;;;;5100099;28;20453;-81
2022/02/23 14:16:52;;;;;;;1.30;0.80;;;22.40;54.50;;;;;;5084353;28;20452;-81
2022/02/23 14:19:47;;;;;;;1.20;0.80;;;22.40;54.50;;;;;;5099874;28;20426;-81
2022/02/23 14:22:22;;;;;;;1.23;0.73;;;22.40;54.50;;;;;;5100397;28;20459;-81
2022/02/23 14:25:03;;;;;;;1.70;1.17;;;22.40;54.50;;;;;;5096605;28;20432;-81
2022/02/23 14:27:38;;;;;;;1.00;0.90;;;22.50;54.60;;;;;;5099387;28;20409;-81
2022/02/23 14:30:24;;;;;;;1.10;0.70;;;22.50;54.70;;;;;;5065748;28;20427;-81
2022/02/23 14:32:51;;;;;;;0.83;0.67;;;22.50;54.70;;;;;;5079624;28;20469;-81
2022/02/23 14:35:25;;;;;;;1.63;0.93;;;22.50;54.70;;;;;;5112872;28;20392;-82
2022/02/23 14:37:54;;;;;;;1.10;0.73;;;22.50;54.70;;;;;;5100839;28;20416;-81
2022/02/23 14:40:28;;;;;;;1.30;0.83;;;22.50;54.70;;;;;;5099119;28;20446;-81